Huvudsida
METAR-TAF:

METAR-TAF

Flygplatser :

Indianapolis, Indiana, USA

latitud: 39-43-30N, longitud: 086-16-55W, höjd: 243 m

Aktuellt väderrapport

Denna rapport gjordes för 1 timme och 5 minuter sedan, klockan 05:54 UTC
Vind 7 kt från nord
Temperatur 2°C
Fuktighet 55%
Tryck 1026 hPa
Sikt: 16.1 km
Klar himmel

METAR: KIND 260554Z 36007KT 10SM CLR 02/M06 A3030 RMK AO2 SLP267 T00171056 10078 20011 51020 $

Tid: 02:59 (06:59 UTC)

Väderprognos

Denna rapport gjordes för 1 timme och 27 minuter sedan, klockan 05:32 UTC
Prognos gäller från 26 kl. 06 UTC till 27 kl. 12 UTC
Vind 5 kt från nord
Sikt: 10 km
Klar himmel
Från 26 kl. 1300 UTC
Vind 6 kt från nordost
Sikt: 10 km
Klar himmel

TAF: KIND 260532Z 2606/2712 36005KT P6SM SKC FM261300 05006KT P6SM SKC

Aktuella väderrapporter och prognoser från 4000 flygplatser (METAR- och TAF-rapporter).

De tillgängliga stationerna syns som gula och röda prickar på kartan.

För musen över prickarna för att se namnen på stationerna.

Klicka sedan för att få väderrapporter och prognoser.

För att ändra kartan: Klicka på de gröna knapparna med ett svart kors på för att zooma in; den gröna knappen med ett streck på för att zooma ut; eller på de gröna pilarna för angränsande kartor.


METAR-TAF: